Time;durP1;ratioP1;P1;durP2;ratioP2;P2;SDS_P1;SDS_P2;PMS_P1;PMS_P2;Temp;Humidity;BMP_temperature;BMP_pressure;BME280_temperature;BME280_humidity;BME280_pressure;Samples;Min_cycle;Max_cycle;Signal;HPM_P1;HPM_P2
2023/09/08 00:01:24;;;;;;;10.77;6.63;;;;;;;;;;5011082;28;20034;-73
2023/09/08 00:03:50;;;;;;;9.93;6.38;;;;;;;;;;5013319;28;20375;-73
2023/09/08 00:06:16;;;;;;;16.40;6.85;;;;;;;;;;5013667;28;20025;-73
2023/09/08 00:08:43;;;;;;;9.82;7.10;;;;;;;;;;5013870;28;20428;-73
2023/09/08 00:11:09;;;;;;;15.95;7.25;;;;;;;;;;5013840;28;20105;-73
2023/09/08 00:13:35;;;;;;;10.55;7.28;;;;;;;;;;5018387;28;20115;-74
2023/09/08 00:16:01;;;;;;;12.75;6.82;;;;;;;;;;5018409;28;20030;-74
2023/09/08 00:18:27;;;;;;;15.43;6.95;;;;;;;;;;5017259;28;20397;-74
2023/09/08 00:20:53;;;;;;;13.15;6.93;;;;;;;;;;5014297;28;20516;-72
2023/09/08 00:23:19;;;;;;;14.35;6.40;;;;;;;;;;5013878;28;20030;-72
2023/09/08 00:25:45;;;;;;;10.40;6.45;;;;;;;;;;5013476;28;20107;-73
2023/09/08 00:28:11;;;;;;;10.25;6.55;;;;;;;;;;5013466;28;20101;-73
2023/09/08 00:30:37;;;;;;;11.75;7.40;;;;;;;;;;5013552;28;20032;-74
2023/09/08 00:33:03;;;;;;;12.40;6.68;;;;;;;;;;5013827;28;20042;-73
2023/09/08 00:35:29;;;;;;;11.07;7.00;;;;;;;;;;5013340;28;20057;-74
2023/09/08 00:37:55;;;;;;;12.23;6.32;;;;;;;;;;5013305;28;20474;-73
2023/09/08 00:40:21;;;;;;;12.35;7.32;;;;;;;;;;5013090;28;20064;-73
2023/09/08 00:42:47;;;;;;;15.32;6.53;;;;;;;;;;5013097;28;20048;-74
2023/09/08 00:45:13;;;;;;;14.68;6.85;;;;;;;;;;5013647;28;20084;-72
2023/09/08 00:47:39;;;;;;;10.50;6.93;;;;;;;;;;5013225;28;20481;-72
2023/09/08 00:50:06;;;;;;;11.70;6.32;;;;;;;;;;5013137;28;20056;-73
2023/09/08 00:52:33;;;;;;;11.68;6.60;;;;;;;;;;5013036;28;20030;-72
2023/09/08 00:54:59;;;;;;;8.38;6.10;;;;;;;;;;5012924;28;20022;-73
2023/09/08 00:57:25;;;;;;;12.65;6.28;;;;;;;;;;5013000;28;20052;-72
2023/09/08 00:59:51;;;;;;;11.02;6.95;;;;;;;;;;5013013;28;20018;-72
2023/09/08 01:02:17;;;;;;;14.77;6.97;;;;;;;;;;5012518;28;20482;-73
2023/09/08 01:04:45;;;;;;;12.68;6.10;;;;;;;;;;5016770;28;20026;-73
2023/09/08 01:07:11;;;;;;;9.55;6.30;;;;;;;;;;5018526;28;20358;-75
2023/09/08 01:09:37;;;;;;;15.13;6.78;;;;;;;;;;5019946;28;20481;-73
2023/09/08 01:12:04;;;;;;;15.52;6.88;;;;;;;;;;5021777;28;20050;-73
2023/09/08 01:14:30;;;;;;;14.85;6.90;;;;;;;;;;5026165;28;20055;-73
2023/09/08 01:16:56;;;;;;;11.85;6.88;;;;;;;;;;5025884;28;20520;-75
2023/09/08 01:19:22;;;;;;;10.07;6.97;;;;;;;;;;5017815;28;20545;-74
2023/09/08 01:22:07;;;;;;;12.95;6.13;;;;;;;;;;5020736;28;20026;-74
2023/09/08 01:24:33;;;;;;;;;;;;;;;;;;5018720;28;20034;-74
2023/09/08 01:26:59;;;;;;;13.40;6.50;;;;;;;;;;5017115;28;19905;-74
2023/09/08 01:29:27;;;;;;;11.10;7.10;;;;;;;;;;5014155;28;20045;-73
2023/09/08 01:31:53;;;;;;;13.80;7.05;;;;;;;;;;5013308;28;20034;-73
2023/09/08 01:34:19;;;;;;;12.02;6.03;;;;;;;;;;5012886;28;20128;-73
2023/09/08 01:36:46;;;;;;;12.38;6.53;;;;;;;;;;5013477;28;20385;-73
2023/09/08 01:39:12;;;;;;;11.57;7.10;;;;;;;;;;5013247;28;20401;-73
2023/09/08 01:41:38;;;;;;;18.20;7.90;;;;;;;;;;5013120;28;20498;-72
2023/09/08 01:44:07;;;;;;;10.60;6.25;;;;;;;;;;5012710;28;20040;-73
2023/09/08 01:46:34;;;;;;;9.20;6.63;;;;;;;;;;5013056;28;20026;-73
2023/09/08 01:49:00;;;;;;;10.60;6.50;;;;;;;;;;5013045;28;20026;-73
2023/09/08 01:51:26;;;;;;;14.43;7.30;;;;;;;;;;5012953;28;20022;-73
2023/09/08 01:53:52;;;;;;;14.65;7.30;;;;;;;;;;5012661;28;20030;-74
2023/09/08 01:56:18;;;;;;;9.63;6.68;;;;;;;;;;5013633;28;20066;-74
2023/09/08 01:58:44;;;;;;;11.68;7.10;;;;;;;;;;5013214;28;20473;-73
2023/09/08 02:01:10;;;;;;;13.48;7.20;;;;;;;;;;5012616;28;20026;-74
2023/09/08 02:03:36;;;;;;;12.35;6.80;;;;;;;;;;5012322;28;20501;-73
2023/09/08 02:06:02;;;;;;;10.75;7.28;;;;;;;;;;5012871;28;20029;-73
2023/09/08 02:08:28;;;;;;;11.23;7.10;;;;;;;;;;5012769;28;20044;-75
2023/09/08 02:10:54;;;;;;;12.43;7.00;;;;;;;;;;5012681;28;20469;-75
2023/09/08 02:13:20;;;;;;;11.07;7.30;;;;;;;;;;5011971;28;20034;-74
2023/09/08 02:15:46;;;;;;;16.77;7.20;;;;;;;;;;5012786;28;20038;-73
2023/09/08 02:18:13;;;;;;;14.70;7.22;;;;;;;;;;5012871;28;20236;-74
2023/09/08 02:20:39;;;;;;;11.98;7.38;;;;;;;;;;5016439;28;20017;-73
2023/09/08 02:23:06;;;;;;;11.50;7.45;;;;;;;;;;5021079;28;20101;-73
2023/09/08 02:25:32;;;;;;;13.98;7.22;;;;;;;;;;5022550;28;20054;-73
2023/09/08 02:27:58;;;;;;;13.88;7.63;;;;;;;;;;5021202;28;20030;-74
2023/09/08 02:30:24;;;;;;;13.15;7.22;;;;;;;;;;5021512;28;20069;-73
2023/09/08 02:32:50;;;;;;;13.10;7.25;;;;;;;;;;5002393;28;20040;-73
2023/09/08 02:35:16;;;;;;;10.98;7.93;;;;;;;;;;5002586;28;20203;-73
2023/09/08 02:37:42;;;;;;;12.52;7.57;;;;;;;;;;5017292;28;20029;-73
2023/09/08 02:40:09;;;;;;;13.43;6.93;;;;;;;;;;5020795;28;20033;-73
2023/09/08 02:42:35;;;;;;;13.00;7.00;;;;;;;;;;5022982;28;20156;-73
2023/09/08 02:45:01;;;;;;;14.45;8.00;;;;;;;;;;5019846;28;20034;-72
2023/09/08 02:47:27;;;;;;;10.40;7.25;;;;;;;;;;5015723;28;20051;-73
2023/09/08 02:49:53;;;;;;;10.70;7.05;;;;;;;;;;5016017;28;20034;-72
2023/09/08 02:52:19;;;;;;;13.57;8.40;;;;;;;;;;5017388;28;20460;-72
2023/09/08 02:54:45;;;;;;;13.02;8.05;;;;;;;;;;5018555;28;20034;-73
2023/09/08 02:57:11;;;;;;;17.95;8.45;;;;;;;;;;5020414;28;20057;-73
2023/09/08 02:59:37;;;;;;;13.95;7.97;;;;;;;;;;5017817;28;20037;-73
2023/09/08 03:02:03;;;;;;;15.32;8.45;;;;;;;;;;5015621;28;20451;-74
2023/09/08 03:04:29;;;;;;;13.23;8.65;;;;;;;;;;5013972;28;20026;-72
2023/09/08 03:06:55;;;;;;;14.98;8.65;;;;;;;;;;5013165;28;20022;-73
2023/09/08 03:09:21;;;;;;;15.43;8.30;;;;;;;;;;5013521;28;20022;-73
2023/09/08 03:11:48;;;;;;;14.73;8.57;;;;;;;;;;5014443;28;20022;-72
2023/09/08 03:14:13;;;;;;;14.10;8.40;;;;;;;;;;5013530;28;20026;-73
2023/09/08 03:16:39;;;;;;;12.27;8.35;;;;;;;;;;5013700;28;20076;-73
2023/09/08 03:19:05;;;;;;;16.17;9.27;;;;;;;;;;5012868;28;20553;-73
2023/09/08 03:21:31;;;;;;;15.27;9.02;;;;;;;;;;5014733;28;20045;-79
2023/09/08 03:23:57;;;;;;;13.90;9.05;;;;;;;;;;5011583;28;20113;-74
2023/09/08 03:26:23;;;;;;;13.63;8.43;;;;;;;;;;5012499;28;20101;-73
2023/09/08 03:28:49;;;;;;;13.70;8.25;;;;;;;;;;5015235;28;20088;-72
2023/09/08 03:31:15;;;;;;;13.98;8.93;;;;;;;;;;5016983;28;20352;-73
2023/09/08 03:33:42;;;;;;;21.40;9.20;;;;;;;;;;5016204;28;20034;-73
2023/09/08 03:36:08;;;;;;;15.77;9.02;;;;;;;;;;5017569;28;20053;-73
2023/09/08 03:38:36;;;;;;;14.93;9.27;;;;;;;;;;5016431;28;20505;-73
2023/09/08 03:41:02;;;;;;;16.02;9.73;;;;;;;;;;5016872;28;20033;-74
2023/09/08 03:43:28;;;;;;;19.58;8.95;;;;;;;;;;5015065;28;20033;-77
2023/09/08 03:45:54;;;;;;;16.30;8.90;;;;;;;;;;5015655;28;20030;-73
2023/09/08 03:48:20;;;;;;;17.02;9.20;;;;;;;;;;5015483;28;20025;-72
2023/09/08 03:50:47;;;;;;;14.05;9.50;;;;;;;;;;5015314;28;20026;-72
2023/09/08 03:53:13;;;;;;;18.60;11.07;;;;;;;;;;5014539;28;20030;-73
2023/09/08 03:55:39;;;;;;;15.07;9.98;;;;;;;;;;5014223;28;20440;-72
2023/09/08 03:58:06;;;;;;;25.20;14.88;;;;;;;;;;5013507;28;20480;-73
2023/09/08 04:00:32;;;;;;;18.83;10.32;;;;;;;;;;5013384;28;20033;-73
2023/09/08 04:02:58;;;;;;;21.08;9.73;;;;;;;;;;5013727;28;20030;-73
2023/09/08 04:05:24;;;;;;;14.38;10.48;;;;;;;;;;5015835;28;20034;-72
2023/09/08 04:07:50;;;;;;;19.80;11.25;;;;;;;;;;5014214;28;20022;-76
2023/09/08 04:10:16;;;;;;;16.30;10.68;;;;;;;;;;5013656;28;20037;-71
2023/09/08 04:12:42;;;;;;;19.63;10.52;;;;;;;;;;5013499;28;20465;-72
2023/09/08 04:15:08;;;;;;;16.30;10.80;;;;;;;;;;5015668;28;20504;-72
2023/09/08 04:17:35;;;;;;;19.85;10.38;;;;;;;;;;5014253;28;20029;-77
2023/09/08 04:20:04;;;;;;;18.17;10.88;;;;;;;;;;5013668;28;20149;-72
2023/09/08 04:22:29;;;;;;;19.67;11.02;;;;;;;;;;5013572;28;20018;-74
2023/09/08 04:24:57;;;;;;;21.20;11.40;;;;;;;;;;5013713;28;20032;-73
2023/09/08 04:27:23;;;;;;;18.17;10.80;;;;;;;;;;5013611;28;20029;-72
2023/09/08 04:29:49;;;;;;;22.20;11.63;;;;;;;;;;5013474;28;20397;-73
2023/09/08 04:32:15;;;;;;;16.30;9.65;;;;;;;;;;5013424;28;20026;-74
2023/09/08 04:34:42;;;;;;;18.10;10.38;;;;;;;;;;5013538;28;20096;-73
2023/09/08 04:37:08;;;;;;;24.75;16.50;;;;;;;;;;5013218;28;20117;-71
2023/09/08 04:39:34;;;;;;;19.75;11.13;;;;;;;;;;5013278;28;20029;-71
2023/09/08 04:42:01;;;;;;;21.00;10.52;;;;;;;;;;5010700;28;20072;-77
2023/09/08 04:44:27;;;;;;;17.55;11.95;;;;;;;;;;5012650;28;20037;-75
2023/09/08 04:46:53;;;;;;;17.92;10.90;;;;;;;;;;5013113;28;20511;-75
2023/09/08 04:49:19;;;;;;;16.70;10.80;;;;;;;;;;5012488;28;20092;-78
2023/09/08 04:51:45;;;;;;;17.08;11.48;;;;;;;;;;5011610;28;20018;-75
2023/09/08 04:54:11;;;;;;;19.50;10.77;;;;;;;;;;5013329;28;20169;-76
2023/09/08 04:56:39;;;;;;;17.55;11.38;;;;;;;;;;5013576;28;20084;-76
2023/09/08 04:59:05;;;;;;;19.08;10.32;;;;;;;;;;5013814;28;20084;-72
2023/09/08 05:01:32;;;;;;;21.00;13.75;;;;;;;;;;5013299;28;20117;-72
2023/09/08 05:03:59;;;;;;;20.02;11.77;;;;;;;;;;5013734;28;20026;-72
2023/09/08 05:06:25;;;;;;;20.13;11.60;;;;;;;;;;5013249;28;20029;-72
2023/09/08 05:08:51;;;;;;;23.10;10.95;;;;;;;;;;5013026;28;20056;-72
2023/09/08 05:11:18;;;;;;;17.33;11.05;;;;;;;;;;5013110;28;20373;-73
2023/09/08 05:13:44;;;;;;;17.65;11.35;;;;;;;;;;5012991;28;20374;-72
2023/09/08 05:16:11;;;;;;;19.00;11.10;;;;;;;;;;5013999;28;20034;-72
2023/09/08 05:18:38;;;;;;;17.30;10.55;;;;;;;;;;5015422;28;20056;-76
2023/09/08 05:21:04;;;;;;;20.38;10.57;;;;;;;;;;5001099;28;20036;-75
2023/09/08 05:23:30;;;;;;;17.65;10.43;;;;;;;;;;5015534;28;20044;-74
2023/09/08 05:25:56;;;;;;;18.30;10.90;;;;;;;;;;5013267;28;20022;-74
2023/09/08 05:28:22;;;;;;;19.25;10.60;;;;;;;;;;5012789;28;20018;-73
2023/09/08 05:30:51;;;;;;;19.15;10.43;;;;;;;;;;5013129;28;20030;-76
2023/09/08 05:33:17;;;;;;;25.73;10.85;;;;;;;;;;5012922;28;20033;-76
2023/09/08 05:35:43;;;;;;;24.40;10.32;;;;;;;;;;5012975;28;20627;-75
2023/09/08 05:38:09;;;;;;;20.90;10.80;;;;;;;;;;5013019;28;20083;-74
2023/09/08 05:40:35;;;;;;;16.10;9.75;;;;;;;;;;5013369;28;20120;-77
2023/09/08 05:43:02;;;;;;;21.73;10.45;;;;;;;;;;5012691;28;20033;-73
2023/09/08 05:45:28;;;;;;;17.77;10.68;;;;;;;;;;5013008;28;20029;-74
2023/09/08 05:47:54;;;;;;;20.17;10.90;;;;;;;;;;5012905;28;20022;-73
2023/09/08 05:50:20;;;;;;;17.73;10.82;;;;;;;;;;5012744;28;20048;-73
2023/09/08 05:52:46;;;;;;;15.35;9.93;;;;;;;;;;5013080;28;20029;-74
2023/09/08 05:55:12;;;;;;;21.65;10.68;;;;;;;;;;5009717;28;20029;-74
2023/09/08 05:57:38;;;;;;;24.77;10.90;;;;;;;;;;5012751;28;20026;-73
2023/09/08 06:00:04;;;;;;;19.02;10.73;;;;;;;;;;5013858;28;20026;-72
2023/09/08 06:02:31;;;;;;;21.63;12.50;;;;;;;;;;5014400;28;20033;-72
2023/09/08 06:04:57;;;;;;;18.77;11.07;;;;;;;;;;5011798;28;20508;-72
2023/09/08 06:07:23;;;;;;;17.92;10.90;;;;;;;;;;5012337;28;20083;-73
2023/09/08 06:09:49;;;;;;;21.88;12.75;;;;;;;;;;5012620;28;20022;-72
2023/09/08 06:12:15;;;;;;;17.80;10.43;;;;;;;;;;5012053;28;20435;-79
2023/09/08 06:14:41;;;;;;;24.27;12.07;;;;;;;;;;5011705;28;20026;-72
2023/09/08 06:17:07;;;;;;;20.63;12.60;;;;;;;;;;5011754;28;20176;-71
2023/09/08 06:19:33;;;;;;;18.88;11.30;;;;;;;;;;5011824;28;20477;-72
2023/09/08 06:21:59;;;;;;;23.25;10.48;;;;;;;;;;5011691;28;20022;-72
2023/09/08 06:24:25;;;;;;;17.50;10.95;;;;;;;;;;5012357;28;20148;-73
2023/09/08 06:26:51;;;;;;;17.50;11.40;;;;;;;;;;5012670;28;20030;-73
2023/09/08 06:29:17;;;;;;;22.30;10.93;;;;;;;;;;5010805;28;20026;-72
2023/09/08 06:31:43;;;;;;;22.65;10.68;;;;;;;;;;5012256;28;20026;-70
2023/09/08 06:34:09;;;;;;;17.52;11.55;;;;;;;;;;5011518;28;20389;-72
2023/09/08 06:36:36;;;;;;;18.70;10.45;;;;;;;;;;5012462;28;20055;-72
2023/09/08 06:39:02;;;;;;;25.80;11.18;;;;;;;;;;5012274;28;20029;-73
2023/09/08 06:41:28;;;;;;;21.15;11.40;;;;;;;;;;5013612;28;20026;-73
2023/09/08 06:43:54;;;;;;;25.33;10.40;;;;;;;;;;5017245;28;20497;-75
2023/09/08 06:46:20;;;;;;;22.38;10.52;;;;;;;;;;5016116;28;20137;-72
2023/09/08 06:48:46;;;;;;;18.08;10.30;;;;;;;;;;5016337;28;20405;-73
2023/09/08 06:51:12;;;;;;;24.05;12.55;;;;;;;;;;5011937;28;20026;-71
2023/09/08 06:53:38;;;;;;;29.90;13.45;;;;;;;;;;5013752;28;20029;-73
2023/09/08 06:56:04;;;;;;;29.17;13.70;;;;;;;;;;5019181;28;20415;-70
2023/09/08 06:58:30;;;;;;;43.70;18.98;;;;;;;;;;5010045;28;20038;-73
2023/09/08 07:00:56;;;;;;;23.27;11.27;;;;;;;;;;5012196;28;20025;-73
2023/09/08 07:03:22;;;;;;;26.17;10.77;;;;;;;;;;5014894;28;20037;-72
2023/09/08 07:05:50;;;;;;;19.77;10.95;;;;;;;;;;5020287;28;20018;-72
2023/09/08 07:08:17;;;;;;;16.77;10.32;;;;;;;;;;5013975;28;20231;-72
2023/09/08 07:10:43;;;;;;;20.05;11.07;;;;;;;;;;5013356;28;20083;-74
2023/09/08 07:13:10;;;;;;;20.23;9.57;;;;;;;;;;5016419;28;20378;-73
2023/09/08 07:15:36;;;;;;;21.15;10.40;;;;;;;;;;5016957;28;20033;-72
2023/09/08 07:18:02;;;;;;;20.50;10.55;;;;;;;;;;5012243;28;20061;-75
2023/09/08 07:20:28;;;;;;;22.88;10.45;;;;;;;;;;5012083;28;20034;-71
2023/09/08 07:22:54;;;;;;;17.60;9.68;;;;;;;;;;5013136;28;20030;-75
2023/09/08 07:25:20;;;;;;;26.00;10.52;;;;;;;;;;5012610;28;20481;-71
2023/09/08 07:27:46;;;;;;;21.13;9.25;;;;;;;;;;5011392;28;20032;-73
2023/09/08 07:30:12;;;;;;;17.00;10.63;;;;;;;;;;5012045;28;20041;-72
2023/09/08 07:32:39;;;;;;;17.77;9.38;;;;;;;;;;5011258;28;20053;-72
2023/09/08 07:35:05;;;;;;;19.08;11.15;;;;;;;;;;5011564;28;20037;-71
2023/09/08 07:37:31;;;;;;;17.40;9.65;;;;;;;;;;5011558;28;20056;-70
2023/09/08 07:39:57;;;;;;;23.40;9.68;;;;;;;;;;5010804;28;20154;-72
2023/09/08 07:42:25;;;;;;;23.13;9.73;;;;;;;;;;5011551;28;20025;-71
2023/09/08 07:44:51;;;;;;;18.98;9.43;;;;;;;;;;5011499;28;20037;-71
2023/09/08 07:47:17;;;;;;;35.53;10.75;;;;;;;;;;5011606;28;20022;-71
2023/09/08 07:49:46;;;;;;;17.05;8.98;;;;;;;;;;5011539;28;20037;-71
2023/09/08 07:52:12;;;;;;;18.27;9.20;;;;;;;;;;5011564;28;20080;-71
2023/09/08 07:54:38;;;;;;;20.70;9.02;;;;;;;;;;5011606;28;20034;-72
2023/09/08 07:57:05;;;;;;;16.55;8.75;;;;;;;;;;5011373;28;20041;-72
2023/09/08 07:59:31;;;;;;;17.98;8.70;;;;;;;;;;5011350;28;20034;-72
2023/09/08 08:01:57;;;;;;;13.55;8.63;;;;;;;;;;5011214;28;20393;-70
2023/09/08 08:04:23;;;;;;;17.25;9.98;;;;;;;;;;5010772;28;20048;-70
2023/09/08 08:06:49;;;;;;;20.98;10.27;;;;;;;;;;5010160;28;20022;-71
2023/09/08 08:09:15;;;;;;;22.60;8.80;;;;;;;;;;5010177;28;20505;-72
2023/09/08 08:11:41;;;;;;;24.27;8.88;;;;;;;;;;5012143;28;20045;-72
2023/09/08 08:14:07;;;;;;;18.70;9.27;;;;;;;;;;5014625;28;20040;-72
2023/09/08 08:16:34;;;;;;;15.43;8.32;;;;;;;;;;5015069;28;20084;-72
2023/09/08 08:19:00;;;;;;;18.00;8.52;;;;;;;;;;5015321;28;20597;-71
2023/09/08 08:21:26;;;;;;;18.42;8.43;;;;;;;;;;5014861;28;20056;-71
2023/09/08 08:23:52;;;;;;;15.57;8.48;;;;;;;;;;5014308;28;20576;-71
2023/09/08 08:26:18;;;;;;;15.63;8.55;;;;;;;;;;5014530;28;20125;-72
2023/09/08 08:28:44;;;;;;;27.13;9.30;;;;;;;;;;5014563;28;20048;-71
2023/09/08 08:31:10;;;;;;;20.20;8.55;;;;;;;;;;5014441;28;20109;-72
2023/09/08 08:33:36;;;;;;;14.93;8.98;;;;;;;;;;5013868;28;20524;-72
2023/09/08 08:36:03;;;;;;;16.67;8.60;;;;;;;;;;5014774;28;20026;-73
2023/09/08 08:38:29;;;;;;;15.75;8.63;;;;;;;;;;5014347;28;20028;-71
2023/09/08 08:40:55;;;;;;;16.95;7.93;;;;;;;;;;5013793;28;20556;-74
2023/09/08 08:43:22;;;;;;;23.30;8.27;;;;;;;;;;5013922;28;20069;-70
2023/09/08 08:45:49;;;;;;;19.48;7.93;;;;;;;;;;5014769;28;20026;-73
2023/09/08 08:48:15;;;;;;;17.02;8.85;;;;;;;;;;5014241;28;20033;-71
2023/09/08 08:50:42;;;;;;;18.45;7.75;;;;;;;;;;5014190;28;20388;-73
2023/09/08 08:53:09;;;;;;;16.48;8.43;;;;;;;;;;5013939;28;20025;-74
2023/09/08 08:55:35;;;;;;;18.35;7.68;;;;;;;;;;5013991;28;20026;-75
2023/09/08 08:58:05;;;;;;;16.30;7.70;;;;;;;;;;5014419;28;20025;-74
2023/09/08 09:00:34;;;;;;;16.17;7.25;;;;;;;;;;5013928;28;20021;-72
2023/09/08 09:03:00;;;;;;;14.95;7.10;;;;;;;;;;5013280;28;20045;-72
2023/09/08 09:05:26;;;;;;;11.88;7.18;;;;;;;;;;5013791;28;20018;-72
2023/09/08 09:07:52;;;;;;;11.80;6.72;;;;;;;;;;5013888;28;20515;-70
2023/09/08 09:10:18;;;;;;;14.73;6.75;;;;;;;;;;5013871;28;20022;-71
2023/09/08 09:12:44;;;;;;;22.63;7.32;;;;;;;;;;5013673;28;20021;-70
2023/09/08 09:15:11;;;;;;;12.60;6.75;;;;;;;;;;5013855;28;20070;-72
2023/09/08 09:17:38;;;;;;;13.65;7.28;;;;;;;;;;5013708;28;20033;-72
2023/09/08 09:20:14;;;;;;;13.57;6.65;;;;;;;;;;5013688;28;20033;-71
2023/09/08 09:22:40;;;;;;;13.85;6.68;;;;;;;;;;5012884;28;20030;-72
2023/09/08 09:25:07;;;;;;;12.70;6.53;;;;;;;;;;5012676;28;20026;-71
2023/09/08 09:27:41;;;;;;;11.73;5.93;;;;;;;;;;5013441;28;20132;-72
2023/09/08 09:30:08;;;;;;;11.48;6.22;;;;;;;;;;5013665;28;20026;-69
2023/09/08 09:32:35;;;;;;;16.20;6.00;;;;;;;;;;5013742;28;20064;-71
2023/09/08 09:35:01;;;;;;;19.52;6.55;;;;;;;;;;5013195;28;20080;-74
2023/09/08 09:37:29;;;;;;;16.05;6.97;;;;;;;;;;5013066;28;20061;-72
2023/09/08 09:39:55;;;;;;;11.68;6.60;;;;;;;;;;5013348;28;20450;-73
2023/09/08 09:42:21;;;;;;;15.77;6.32;;;;;;;;;;5012908;28;20382;-74
2023/09/08 09:44:48;;;;;;;14.73;6.82;;;;;;;;;;5013200;28;20040;-74
2023/09/08 09:47:14;;;;;;;10.35;6.40;;;;;;;;;;5012989;28;20030;-74
2023/09/08 09:49:47;;;;;;;14.32;6.50;;;;;;;;;;5013417;28;20728;-74
2023/09/08 09:52:13;;;;;;;14.93;6.78;;;;;;;;;;5013727;28;20031;-76
2023/09/08 09:54:45;;;;;;;11.20;6.75;;;;;;;;;;5013106;28;20022;-75
2023/09/08 09:57:13;;;;;;;19.95;7.45;;;;;;;;;;5014006;28;20517;-73
2023/09/08 09:59:40;;;;;;;18.13;6.63;;;;;;;;;;5012962;28;20426;-73
2023/09/08 10:02:10;;;;;;;15.20;6.72;;;;;;;;;;5012420;28;20073;-71
2023/09/08 10:04:36;;;;;;;13.52;6.80;;;;;;;;;;5013111;28;20022;-72
2023/09/08 10:07:02;;;;;;;14.82;6.65;;;;;;;;;;5013049;28;20470;-73
2023/09/08 10:09:28;;;;;;;11.02;6.25;;;;;;;;;;5012711;28;20109;-73
2023/09/08 10:11:55;;;;;;;14.43;7.03;;;;;;;;;;5012864;28;20086;-72
2023/09/08 10:14:21;;;;;;;20.88;6.28;;;;;;;;;;5012654;28;20030;-71
2023/09/08 10:16:52;;;;;;;10.18;6.93;;;;;;;;;;5012688;28;20025;-73
2023/09/08 10:19:18;;;;;;;12.20;6.63;;;;;;;;;;5012844;28;20076;-72
2023/09/08 10:21:47;;;;;;;12.80;6.20;;;;;;;;;;5012519;28;20548;-73
2023/09/08 10:24:23;;;;;;;11.70;6.20;;;;;;;;;;5011862;28;20029;-72
2023/09/08 10:26:52;;;;;;;11.82;6.30;;;;;;;;;;5012352;28;20025;-72
2023/09/08 10:29:19;;;;;;;10.30;6.57;;;;;;;;;;5012328;28;20096;-70
2023/09/08 10:31:45;;;;;;;11.55;6.53;;;;;;;;;;5012000;28;20066;-72
2023/09/08 10:34:11;;;;;;;17.50;6.07;;;;;;;;;;5011609;28;20033;-71
2023/09/08 10:36:38;;;;;;;11.77;6.70;;;;;;;;;;5012055;28;20036;-71
2023/09/08 10:39:23;;;;;;;12.73;6.60;;;;;;;;;;5011959;28;20026;-71
2023/09/08 10:41:49;;;;;;;10.80;6.82;;;;;;;;;;5012082;28;20442;-72
2023/09/08 10:44:15;;;;;;;13.40;6.38;;;;;;;;;;5011544;28;20080;-72
2023/09/08 10:46:41;;;;;;;11.63;6.50;;;;;;;;;;5012228;28;20381;-71
2023/09/08 10:49:07;;;;;;;10.63;5.95;;;;;;;;;;5012165;28;20109;-72
2023/09/08 10:51:37;;;;;;;12.82;6.18;;;;;;;;;;5012090;28;20026;-72
2023/09/08 10:54:04;;;;;;;10.90;6.20;;;;;;;;;;5011967;28;20489;-71
2023/09/08 10:56:54;;;;;;;13.13;6.35;;;;;;;;;;5012144;28;20026;-72
2023/09/08 10:59:20;;;;;;;12.13;5.90;;;;;;;;;;5012181;28;20528;-72
2023/09/08 11:01:47;;;;;;;10.07;5.82;;;;;;;;;;5011860;28;20034;-72
2023/09/08 11:04:14;;;;;;;16.85;6.78;;;;;;;;;;5011926;28;20078;-71
2023/09/08 11:06:40;;;;;;;9.27;5.63;;;;;;;;;;5012969;28;20048;-72
2023/09/08 11:09:09;;;;;;;17.08;6.35;;;;;;;;;;5012627;28;20497;-72
2023/09/08 11:11:36;;;;;;;11.52;6.30;;;;;;;;;;5011547;28;20026;-73
2023/09/08 11:14:03;;;;;;;15.20;5.95;;;;;;;;;;5011235;28;20029;-72
2023/09/08 11:16:31;;;;;;;12.00;5.75;;;;;;;;;;5011581;28;20056;-71
2023/09/08 11:18:57;;;;;;;12.10;6.00;;;;;;;;;;5013232;28;20022;-74
2023/09/08 11:21:24;;;;;;;22.23;7.25;;;;;;;;;;5011356;28;20025;-71
2023/09/08 11:23:50;;;;;;;18.08;6.65;;;;;;;;;;5012909;28;20029;-73
2023/09/08 11:26:16;;;;;;;8.50;5.70;;;;;;;;;;5012541;28;20064;-73
2023/09/08 11:28:42;;;;;;;9.82;6.00;;;;;;;;;;5012328;28;20030;-73
2023/09/08 11:31:08;;;;;;;8.45;5.70;;;;;;;;;;5011676;28;20413;-73
2023/09/08 11:33:41;;;;;;;13.35;6.32;;;;;;;;;;5011290;28;20037;-73
2023/09/08 11:36:14;;;;;;;16.00;5.95;;;;;;;;;;5011521;28;20080;-78
2023/09/08 11:38:41;;;;;;;18.02;5.75;;;;;;;;;;5012529;28;20062;-73
2023/09/08 11:41:07;;;;;;;11.45;5.43;;;;;;;;;;5011634;28;20030;-72
2023/09/08 11:43:34;;;;;;;13.38;5.38;;;;;;;;;;5011128;28;20037;-72
2023/09/08 11:46:00;;;;;;;11.77;4.82;;;;;;;;;;5011412;28;20014;-72
2023/09/08 11:48:26;;;;;;;17.63;6.20;;;;;;;;;;5014789;28;20491;-74
2023/09/08 11:50:56;;;;;;;10.30;5.28;;;;;;;;;;5015266;28;20097;-71
2023/09/08 11:53:23;;;;;;;7.60;5.13;;;;;;;;;;5015038;28;20025;-73
2023/09/08 11:55:49;;;;;;;7.22;5.35;;;;;;;;;;5015229;28;20021;-75
2023/09/08 11:58:16;;;;;;;14.45;5.05;;;;;;;;;;5014840;28;20393;-74
2023/09/08 12:00:41;;;;;;;8.48;4.53;;;;;;;;;;5015167;28;20066;-72
2023/09/08 12:03:12;;;;;;;9.77;4.78;;;;;;;;;;5014741;28;20068;-72
2023/09/08 12:05:38;;;;;;;9.88;4.90;;;;;;;;;;5015097;28;20026;-72
2023/09/08 12:08:07;;;;;;;11.10;6.25;;;;;;;;;;5013198;28;20041;-71
2023/09/08 12:10:42;;;;;;;11.32;5.63;;;;;;;;;;5015533;28;20030;-72
2023/09/08 12:13:09;;;;;;;11.80;4.95;;;;;;;;;;5014544;28;20030;-72
2023/09/08 12:15:43;;;;;;;11.70;5.57;;;;;;;;;;5015163;28;20080;-73
2023/09/08 12:18:15;;;;;;;10.32;4.90;;;;;;;;;;5013504;28;20022;-73
2023/09/08 12:20:41;;;;;;;7.93;5.13;;;;;;;;;;5014816;28;20026;-74
2023/09/08 12:23:16;;;;;;;10.35;4.78;;;;;;;;;;5011783;28;20056;-72
2023/09/08 12:25:46;;;;;;;17.92;5.22;;;;;;;;;;5014376;28;20018;-74
2023/09/08 12:28:12;;;;;;;14.20;5.10;;;;;;;;;;5014809;28;20034;-74
2023/09/08 12:30:39;;;;;;;12.15;4.78;;;;;;;;;;5014275;28;20441;-73
2023/09/08 12:33:05;;;;;;;18.80;13.68;;;;;;;;;;5014201;28;20109;-74
2023/09/08 12:35:31;;;;;;;7.40;4.78;;;;;;;;;;5014396;28;20030;-75
2023/09/08 12:38:01;;;;;;;10.15;4.55;;;;;;;;;;5013403;28;20018;-76
2023/09/08 12:40:27;;;;;;;11.10;4.93;;;;;;;;;;5014217;28;20069;-74
2023/09/08 12:42:53;;;;;;;13.38;5.25;;;;;;;;;;5014140;28;20638;-71
2023/09/08 12:45:23;;;;;;;13.40;4.68;;;;;;;;;;5014351;28;20022;-72
2023/09/08 12:47:49;;;;;;;7.93;4.60;;;;;;;;;;5014347;28;20030;-72
2023/09/08 12:50:16;;;;;;;8.10;4.72;;;;;;;;;;5014685;28;20417;-73
2023/09/08 12:52:42;;;;;;;11.27;4.50;;;;;;;;;;5013619;28;20029;-71
2023/09/08 12:55:08;;;;;;;12.80;4.40;;;;;;;;;;5011527;28;20026;-71
2023/09/08 12:57:34;;;;;;;7.30;4.55;;;;;;;;;;5013679;28;20436;-73
2023/09/08 13:00:00;;;;;;;12.52;4.72;;;;;;;;;;5013601;28;20030;-71
2023/09/08 13:02:26;;;;;;;6.95;4.10;;;;;;;;;;5012301;28;20030;-73
2023/09/08 13:04:52;;;;;;;6.72;4.50;;;;;;;;;;5013242;28;20030;-71
2023/09/08 13:07:19;;;;;;;6.03;3.92;;;;;;;;;;5013658;28;20417;-71
2023/09/08 13:09:45;;;;;;;11.00;4.80;;;;;;;;;;5013247;28;20543;-74
2023/09/08 13:12:13;;;;;;;7.80;3.90;;;;;;;;;;5012585;28;20030;-72
2023/09/08 13:14:39;;;;;;;8.70;5.00;;;;;;;;;;5013046;28;20030;-72
2023/09/08 13:17:05;;;;;;;12.13;4.60;;;;;;;;;;5013079;28;20038;-72
2023/09/08 13:19:32;;;;;;;5.68;4.22;;;;;;;;;;5011135;28;20160;-72
2023/09/08 13:21:58;;;;;;;9.55;3.92;;;;;;;;;;5013434;28;20022;-70
2023/09/08 13:24:24;;;;;;;7.82;4.05;;;;;;;;;;5013005;28;20040;-70
2023/09/08 13:26:50;;;;;;;8.20;3.88;;;;;;;;;;5015891;28;20030;-71
2023/09/08 13:29:17;;;;;;;9.63;3.72;;;;;;;;;;5013497;28;20030;-71
2023/09/08 13:31:43;;;;;;;7.40;4.07;;;;;;;;;;5013292;28;20512;-72
2023/09/08 13:34:09;;;;;;;10.38;4.32;;;;;;;;;;5013403;28;20030;-71
2023/09/08 13:36:36;;;;;;;8.60;3.88;;;;;;;;;;5011439;28;20473;-71
2023/09/08 13:39:02;;;;;;;11.60;4.00;;;;;;;;;;5013959;28;20046;-72
2023/09/08 13:41:49;;;;;;;11.20;4.13;;;;;;;;;;5013382;28;20117;-71
2023/09/08 13:44:15;;;;;;;9.30;3.67;;;;;;;;;;5005534;28;20026;-70
2023/09/08 13:46:41;;;;;;;7.88;4.00;;;;;;;;;;5011761;28;20041;-71
2023/09/08 13:49:07;;;;;;;9.32;3.95;;;;;;;;;;5013132;28;20022;-72
2023/09/08 13:51:33;;;;;;;9.85;4.45;;;;;;;;;;5013516;28;20034;-72
2023/09/08 13:54:00;;;;;;;8.65;3.83;;;;;;;;;;5011648;28;20105;-70
2023/09/08 13:56:26;;;;;;;6.53;4.15;;;;;;;;;;5013279;28;20033;-72
2023/09/08 13:58:52;;;;;;;5.07;3.90;;;;;;;;;;5012761;28;20077;-74
2023/09/08 14:01:18;;;;;;;12.38;4.18;;;;;;;;;;5013094;28;20494;-73
2023/09/08 14:03:44;;;;;;;8.50;4.68;;;;;;;;;;5012549;28;20038;-73
2023/09/08 14:06:10;;;;;;;7.65;3.90;;;;;;;;;;5013200;28;20040;-71
2023/09/08 14:08:36;;;;;;;10.05;4.70;;;;;;;;;;5012800;28;20029;-72
2023/09/08 14:11:02;;;;;;;7.13;3.75;;;;;;;;;;5012612;28;20041;-73
2023/09/08 14:13:28;;;;;;;9.43;3.90;;;;;;;;;;5012368;28;20116;-72
2023/09/08 14:15:54;;;;;;;11.27;4.07;;;;;;;;;;5012893;28;20485;-73
2023/09/08 14:18:20;;;;;;;9.82;4.15;;;;;;;;;;5012676;28;20022;-73
2023/09/08 14:20:46;;;;;;;8.27;4.13;;;;;;;;;;5012506;28;20109;-73
2023/09/08 14:23:12;;;;;;;9.70;4.50;;;;;;;;;;5012008;28;20030;-72
2023/09/08 14:25:38;;;;;;;6.50;4.38;;;;;;;;;;5012268;28;20437;-71